createdAt,value
2023-03-20T00:01:14.285Z,5.47
2023-03-20T00:03:42.958Z,5.56
2023-03-20T00:06:18.863Z,5.59
2023-03-20T00:08:48.997Z,5.65
2023-03-20T00:11:33.559Z,5.56
2023-03-20T00:14:04.205Z,5.41
2023-03-20T00:16:34.332Z,5.31
2023-03-20T00:19:03.349Z,5.22
2023-03-20T00:21:33.218Z,5.27
2023-03-20T00:24:02.060Z,5.28
2023-03-20T00:26:34.912Z,5.28
2023-03-20T00:29:05.127Z,5.33
2023-03-20T00:31:36.084Z,5.41
2023-03-20T00:34:06.447Z,5.48
2023-03-20T00:36:36.339Z,5.55
2023-03-20T00:39:04.930Z,5.60
2023-03-20T00:41:38.352Z,5.63
2023-03-20T00:44:19.821Z,5.76
2023-03-20T00:46:50.740Z,5.82
2023-03-20T00:49:19.905Z,5.83
2023-03-20T00:51:49.270Z,5.90
2023-03-20T00:54:19.074Z,5.88
2023-03-20T00:56:52.598Z,5.93
2023-03-20T00:59:25.730Z,5.92
2023-03-20T01:01:54.277Z,5.96
2023-03-20T01:04:23.880Z,5.98
2023-03-20T01:06:53.983Z,5.97
2023-03-20T01:09:22.459Z,5.97
2023-03-20T01:11:52.367Z,6.01
2023-03-20T01:14:21.913Z,5.98
2023-03-20T01:16:50.028Z,5.98
2023-03-20T01:19:18.402Z,6.01
2023-03-20T01:21:47.643Z,6.01
2023-03-20T01:24:17.258Z,5.99
2023-03-20T01:26:46.601Z,6.00
2023-03-20T01:29:19.915Z,6.10
2023-03-20T01:31:48.468Z,6.11
2023-03-20T01:34:17.488Z,6.12
2023-03-20T01:36:49.755Z,6.12
2023-03-20T01:39:21.794Z,6.11
2023-03-20T01:41:52.160Z,6.09
2023-03-20T01:44:22.522Z,6.06
2023-03-20T01:46:55.499Z,6.05
2023-03-20T01:50:19.224Z,6.04
2023-03-20T01:52:51.475Z,6.04
2023-03-20T01:55:22.501Z,6.04
2023-03-20T01:57:59.792Z,6.04
2023-03-20T02:00:28.016Z,6.07
2023-03-20T02:02:57.242Z,6.09
2023-03-20T02:05:46.226Z,6.10
2023-03-20T02:08:20.609Z,6.13
2023-03-20T02:10:50.628Z,6.18
2023-03-20T02:13:27.707Z,6.18
2023-03-20T02:16:07.513Z,6.27
2023-03-20T02:18:58.394Z,6.32
2023-03-20T02:21:59.931Z,6.32
2023-03-20T02:25:02.358Z,6.37
2023-03-20T02:27:45.879Z,6.42
2023-03-20T02:30:56.616Z,6.55
2023-03-20T02:33:51.019Z,6.37
2023-03-20T02:36:59.049Z,6.20
2023-03-20T02:39:47.486Z,6.11
2023-03-20T02:42:25.526Z,6.09
2023-03-20T02:45:04.820Z,6.09
2023-03-20T02:47:42.396Z,6.12
2023-03-20T02:50:27.138Z,6.11
2023-03-20T02:53:08.719Z,6.12
2023-03-20T02:55:42.687Z,6.15
2023-03-20T02:58:15.778Z,6.03
2023-03-20T03:00:52.027Z,5.98
2023-03-20T03:03:25.406Z,6.04
2023-03-20T03:05:59.759Z,6.05
2023-03-20T03:08:33.867Z,5.97
2023-03-20T03:11:07.510Z,5.93
2023-03-20T03:13:40.305Z,5.90
2023-03-20T03:16:12.840Z,5.78
2023-03-20T03:18:43.472Z,5.71
2023-03-20T03:21:14.653Z,5.61
2023-03-20T03:23:47.148Z,5.61
2023-03-20T03:26:22.467Z,5.54
2023-03-20T03:28:55.802Z,5.56
2023-03-20T03:31:24.858Z,5.53
2023-03-20T03:33:56.193Z,5.53
2023-03-20T03:36:38.689Z,5.47
2023-03-20T03:39:19.126Z,5.41
2023-03-20T03:41:53.506Z,5.33
2023-03-20T03:44:27.863Z,5.28
2023-03-20T03:47:00.189Z,5.31
2023-03-20T03:49:34.079Z,5.35
2023-03-20T03:52:06.431Z,5.32
2023-03-20T03:54:40.704Z,5.38
2023-03-20T03:57:34.272Z,5.53
2023-03-20T04:00:07.042Z,5.60
2023-03-20T04:02:48.197Z,5.67
2023-03-20T04:05:19.528Z,5.74
2023-03-20T04:07:48.209Z,5.87
2023-03-20T04:10:18.507Z,5.86
2023-03-20T04:12:48.521Z,5.83
2023-03-20T04:15:17.355Z,5.87
2023-03-20T04:17:45.720Z,5.87
2023-03-20T04:20:16.243Z,5.87
2023-03-20T04:22:45.157Z,5.83
2023-03-20T04:25:18.976Z,5.86
2023-03-20T04:27:48.738Z,5.83
2023-03-20T04:30:25.076Z,5.82
2023-03-20T04:33:12.514Z,5.74
2023-03-20T04:36:13.514Z,5.77
2023-03-20T04:38:42.774Z,5.79
2023-03-20T04:41:11.238Z,5.78
2023-03-20T04:43:41.786Z,5.79
2023-03-20T04:46:09.891Z,5.85
2023-03-20T04:48:39.167Z,5.88
2023-03-20T04:51:07.867Z,5.86
2023-03-20T04:53:46.089Z,5.84
2023-03-20T04:56:14.363Z,5.84
2023-03-20T04:58:44.181Z,5.84
2023-03-20T05:01:12.978Z,5.79
2023-03-20T05:03:41.580Z,5.78
2023-03-20T05:06:10.728Z,5.78
2023-03-20T05:08:44.628Z,5.85
2023-03-20T05:11:13.050Z,5.87
2023-03-20T05:14:01.139Z,5.93
2023-03-20T05:16:50.805Z,6.13
2023-03-20T05:19:26.379Z,6.18
2023-03-20T05:22:12.820Z,6.17
2023-03-20T05:25:01.150Z,6.14
2023-03-20T05:27:48.387Z,6.19
2023-03-20T05:30:38.170Z,6.25
2023-03-20T05:33:32.290Z,6.35
2023-03-20T05:36:19.624Z,6.48
2023-03-20T05:39:16.382Z,6.52
2023-03-20T05:42:03.308Z,6.55
2023-03-20T05:44:45.224Z,6.46
2023-03-20T05:47:26.208Z,6.42
2023-03-20T05:50:05.540Z,6.41
2023-03-20T05:52:51.200Z,6.47
2023-03-20T05:55:45.586Z,6.42
2023-03-20T05:58:35.182Z,6.53
2023-03-20T06:01:22.401Z,6.62
2023-03-20T06:03:54.860Z,6.69
2023-03-20T06:06:42.963Z,6.72
2023-03-20T06:09:11.474Z,6.71
2023-03-20T06:11:39.799Z,6.72
2023-03-20T06:14:08.801Z,6.76
2023-03-20T06:16:40.551Z,6.82
2023-03-20T06:19:11.170Z,6.93
2023-03-20T06:21:39.284Z,6.93
2023-03-20T06:24:11.364Z,7.00
2023-03-20T06:26:39.614Z,7.08
2023-03-20T06:29:11.726Z,7.13
2023-03-20T06:31:40.008Z,7.24
2023-03-20T06:34:13.900Z,7.35
2023-03-20T06:36:47.069Z,7.41
2023-03-20T06:39:20.382Z,7.47
2023-03-20T06:41:49.420Z,7.51
2023-03-20T06:44:17.615Z,7.58
2023-03-20T06:47:11.790Z,7.64
2023-03-20T06:49:44.531Z,7.68
2023-03-20T06:52:17.585Z,7.77
2023-03-20T06:54:52.457Z,7.77
2023-03-20T06:57:20.961Z,7.82
2023-03-20T06:59:49.078Z,7.85
2023-03-20T07:02:18.100Z,7.87
2023-03-20T07:04:48.342Z,7.92
2023-03-20T07:07:17.481Z,8.01
2023-03-20T07:09:46.768Z,8.09
2023-03-20T07:12:20.143Z,8.15
2023-03-20T07:14:48.593Z,8.15
2023-03-20T07:17:20.472Z,8.15
2023-03-20T07:19:51.916Z,8.19
2023-03-20T07:22:23.691Z,8.26
2023-03-20T07:24:53.645Z,8.34
2023-03-20T07:27:25.262Z,8.36
2023-03-20T07:29:56.164Z,8.40
2023-03-20T07:32:25.582Z,8.43
2023-03-20T07:34:55.576Z,8.48
2023-03-20T07:37:23.676Z,8.54
2023-03-20T07:40:04.954Z,8.60
2023-03-20T07:42:44.354Z,8.66
2023-03-20T07:45:17.062Z,8.72
2023-03-20T07:47:48.314Z,8.78
2023-03-20T07:50:18.875Z,8.96
2023-03-20T07:52:49.135Z,9.20
2023-03-20T07:55:18.750Z,9.15
2023-03-20T07:57:49.326Z,9.34
2023-03-20T08:00:18.892Z,9.18
2023-03-20T08:02:47.056Z,9.27
2023-03-20T08:06:07.630Z,9.49
2023-03-20T08:08:38.262Z,9.72
2023-03-20T08:11:07.226Z,9.61
2023-03-20T08:13:35.608Z,9.88
2023-03-20T08:16:03.760Z,9.98
2023-03-20T08:18:31.845Z,10.08
2023-03-20T08:21:00.299Z,10.33
2023-03-20T08:23:28.703Z,10.13
2023-03-20T08:25:58.537Z,10.26
2023-03-20T08:28:40.402Z,10.37
2023-03-20T08:31:12.638Z,11.23
2023-03-20T08:33:41.207Z,11.07
2023-03-20T08:36:10.004Z,11.37
2023-03-20T08:38:38.608Z,12.28
2023-03-20T08:41:09.489Z,12.38
2023-03-20T08:43:37.680Z,14.28
2023-03-20T08:46:08.208Z,15.28
2023-03-20T08:48:37.451Z,14.85
2023-03-20T08:51:06.405Z,13.77
2023-03-20T08:53:34.532Z,11.91
2023-03-20T08:56:03.101Z,11.67
2023-03-20T08:58:33.063Z,12.20
2023-03-20T09:01:05.858Z,12.80
2023-03-20T09:03:34.020Z,12.51
2023-03-20T09:06:02.111Z,11.73
2023-03-20T09:08:30.352Z,11.38
2023-03-20T09:10:58.991Z,10.97
2023-03-20T09:13:28.101Z,10.68
2023-03-20T09:15:58.343Z,10.71
2023-03-20T09:18:27.030Z,10.64
2023-03-20T09:20:56.654Z,10.56
2023-03-20T09:23:25.420Z,10.62
2023-03-20T09:25:53.524Z,10.58
2023-03-20T09:28:21.676Z,10.65
2023-03-20T09:30:49.983Z,10.68
2023-03-20T09:33:19.979Z,10.68
2023-03-20T09:35:48.431Z,10.57
2023-03-20T09:38:16.630Z,10.65
2023-03-20T09:41:04.083Z,10.73
2023-03-20T09:43:48.309Z,10.86
2023-03-20T09:46:30.811Z,11.33
2023-03-20T09:49:08.952Z,11.90
2023-03-20T09:51:43.064Z,12.20
2023-03-20T09:54:21.717Z,13.69
2023-03-20T09:56:51.170Z,15.38
2023-03-20T09:59:21.773Z,15.18
2023-03-20T10:01:53.267Z,15.84
2023-03-20T10:04:26.313Z,16.02
2023-03-20T10:06:54.814Z,15.29
2023-03-20T10:09:25.240Z,14.60
2023-03-20T10:12:10.173Z,13.04
2023-03-20T10:14:50.988Z,12.75
2023-03-20T10:17:33.134Z,14.06
2023-03-20T10:20:13.755Z,14.44
2023-03-20T10:22:46.320Z,13.50
2023-03-20T10:25:24.972Z,12.94
2023-03-20T10:27:59.403Z,12.75
2023-03-20T10:30:47.182Z,13.19
2023-03-20T10:33:27.730Z,13.01
2023-03-20T10:36:11.879Z,13.03
2023-03-20T10:38:47.081Z,13.30
2023-03-20T10:41:19.158Z,13.06
2023-03-20T10:43:50.933Z,12.95
2023-03-20T10:46:23.450Z,12.65
2023-03-20T10:48:58.236Z,12.79
2023-03-20T10:51:39.428Z,12.96
2023-03-20T10:54:14.201Z,12.22
2023-03-20T10:56:48.012Z,11.82
2023-03-20T10:59:23.483Z,11.87
2023-03-20T11:01:52.011Z,11.70
2023-03-20T11:04:20.216Z,11.78
2023-03-20T11:06:59.920Z,11.67
2023-03-20T11:09:30.522Z,11.71
2023-03-20T11:11:59.753Z,11.81
2023-03-20T11:14:34.513Z,11.90
2023-03-20T11:17:04.639Z,11.86
2023-03-20T11:19:35.080Z,11.78
2023-03-20T11:22:10.174Z,11.54
2023-03-20T11:24:42.865Z,11.71
2023-03-20T11:27:14.238Z,11.84
2023-03-20T11:29:45.794Z,11.86
2023-03-20T11:32:27.979Z,12.39
2023-03-20T11:34:57.567Z,12.32
2023-03-20T11:37:29.319Z,12.51
2023-03-20T11:40:08.554Z,12.24
2023-03-20T11:42:37.620Z,12.39
2023-03-20T11:45:16.057Z,12.71
2023-03-20T11:47:45.433Z,12.45
2023-03-20T11:50:28.858Z,12.46
2023-03-20T11:52:59.332Z,12.15
2023-03-20T11:55:30.992Z,12.21
2023-03-20T11:58:01.353Z,12.00
2023-03-20T12:00:36.653Z,12.15
2023-03-20T12:03:05.382Z,12.15
2023-03-20T12:05:35.621Z,12.27
2023-03-20T12:08:14.237Z,12.16
2023-03-20T12:10:44.107Z,12.39
2023-03-20T12:13:18.840Z,12.32
2023-03-20T12:15:52.452Z,12.36
2023-03-20T12:18:28.067Z,12.52
2023-03-20T12:21:05.683Z,12.35
2023-03-20T12:23:38.592Z,12.49
2023-03-20T12:26:12.790Z,12.63
2023-03-20T12:28:48.771Z,12.80
2023-03-20T12:31:24.883Z,12.79
2023-03-20T12:33:59.536Z,12.41
2023-03-20T12:36:32.928Z,12.48
2023-03-20T12:39:04.500Z,12.26
2023-03-20T12:41:41.691Z,12.02
2023-03-20T12:44:22.894Z,12.22
2023-03-20T12:47:00.113Z,12.13
2023-03-20T12:49:40.194Z,12.38
2023-03-20T12:52:16.468Z,12.11
2023-03-20T12:55:10.534Z,12.05
2023-03-20T12:57:47.971Z,11.92
2023-03-20T13:00:25.076Z,11.99
2023-03-20T13:03:04.583Z,12.09
2023-03-20T13:05:42.772Z,12.21
2023-03-20T13:08:24.518Z,12.14
2023-03-20T13:11:00.612Z,12.17
2023-03-20T13:13:35.022Z,12.23
2023-03-20T13:16:17.946Z,12.04
2023-03-20T13:18:59.185Z,11.74
2023-03-20T13:21:37.486Z,11.81
2023-03-20T13:24:24.213Z,11.77
2023-03-20T13:27:03.508Z,11.63
2023-03-20T13:29:43.111Z,11.37
2023-03-20T13:32:21.363Z,11.34
2023-03-20T13:35:05.130Z,11.44
2023-03-20T13:37:36.903Z,11.45
2023-03-20T13:40:12.744Z,11.40
2023-03-20T13:42:49.318Z,11.57
2023-03-20T13:45:31.691Z,11.40
2023-03-20T13:48:04.818Z,11.44
2023-03-20T13:50:43.604Z,11.44
2023-03-20T13:53:23.462Z,11.57
2023-03-20T13:56:01.068Z,11.64
2023-03-20T13:58:47.755Z,11.45
2023-03-20T14:01:23.570Z,11.48
2023-03-20T14:03:53.145Z,11.35
2023-03-20T14:06:46.592Z,11.40
2023-03-20T14:09:33.134Z,11.30
2023-03-20T14:12:05.249Z,11.31
2023-03-20T14:14:43.094Z,11.36
2023-03-20T14:17:17.791Z,11.36
2023-03-20T14:19:47.057Z,11.48
2023-03-20T14:22:20.870Z,11.26
2023-03-20T14:24:56.414Z,11.14
2023-03-20T14:27:45.158Z,10.99
2023-03-20T14:30:41.982Z,11.00
2023-03-20T14:33:26.889Z,11.02
2023-03-20T14:36:18.646Z,10.95
2023-03-20T14:38:57.325Z,10.89
2023-03-20T14:41:31.794Z,10.91
2023-03-20T14:44:12.956Z,11.02
2023-03-20T14:46:52.851Z,11.03
2023-03-20T14:49:37.532Z,11.15
2023-03-20T14:52:24.336Z,11.23
2023-03-20T14:54:56.836Z,11.36
2023-03-20T14:57:37.567Z,11.44
2023-03-20T15:00:23.182Z,11.61
2023-03-20T15:02:54.955Z,11.38
2023-03-20T15:05:29.254Z,11.24
2023-03-20T15:07:59.255Z,11.04
2023-03-20T15:10:27.397Z,11.02
2023-03-20T15:12:58.208Z,10.87
2023-03-20T15:15:30.667Z,10.71
2023-03-20T15:18:08.879Z,10.65
2023-03-20T15:20:37.674Z,10.57
2023-03-20T15:23:06.529Z,10.60
2023-03-20T15:25:39.337Z,10.44
2023-03-20T15:28:08.192Z,10.41
2023-03-20T15:30:39.823Z,10.30
2023-03-20T15:33:17.636Z,10.23
2023-03-20T15:35:45.937Z,10.10
2023-03-20T15:38:17.295Z,9.91
2023-03-20T15:40:50.958Z,9.80
2023-03-20T15:43:22.544Z,9.70
2023-03-20T15:46:03.019Z,9.64
2023-03-20T15:48:40.046Z,9.59
2023-03-20T15:51:11.495Z,9.53
2023-03-20T15:53:44.677Z,9.43
2023-03-20T15:56:18.782Z,9.31
2023-03-20T15:58:50.132Z,9.21
2023-03-20T16:01:20.554Z,9.11
2023-03-20T16:03:52.178Z,9.14
2023-03-20T16:06:22.899Z,9.03
2023-03-20T16:08:59.140Z,8.98
2023-03-20T16:11:38.318Z,8.97
2023-03-20T16:14:07.901Z,8.94
2023-03-20T16:16:37.799Z,8.90
2023-03-20T16:19:09.351Z,8.94
2023-03-20T16:21:41.764Z,8.93
2023-03-20T16:24:16.995Z,8.91
2023-03-20T16:26:49.688Z,8.82
2023-03-20T16:29:19.513Z,8.78
2023-03-20T16:31:56.251Z,8.72
2023-03-20T16:34:32.094Z,8.70
2023-03-20T16:37:03.449Z,8.63
2023-03-20T16:39:32.503Z,8.57
2023-03-20T16:42:13.029Z,8.51
2023-03-20T16:44:43.358Z,8.46
2023-03-20T16:47:20.108Z,8.43
2023-03-20T16:50:12.812Z,8.39
2023-03-20T16:52:43.487Z,8.39
2023-03-20T16:55:17.075Z,8.34
2023-03-20T16:57:49.763Z,8.33
2023-03-20T17:00:24.881Z,8.29
2023-03-20T17:02:59.575Z,8.30
2023-03-20T17:05:43.926Z,8.24
2023-03-20T17:08:15.404Z,8.24
2023-03-20T17:10:51.363Z,8.21
2023-03-20T17:13:19.523Z,8.21
2023-03-20T17:15:47.740Z,8.19
2023-03-20T17:18:16.115Z,8.18
2023-03-20T17:20:45.957Z,8.20
2023-03-20T17:23:17.091Z,8.18
2023-03-20T17:25:45.592Z,8.20
2023-03-20T17:28:20.618Z,8.20
2023-03-20T17:30:50.388Z,8.18
2023-03-20T17:33:21.093Z,8.14
2023-03-20T17:35:52.933Z,8.12
2023-03-20T17:38:23.280Z,8.12
2023-03-20T17:40:53.746Z,8.06
2023-03-20T17:43:22.320Z,8.05
2023-03-20T17:45:50.897Z,8.04
2023-03-20T17:48:21.445Z,7.99
2023-03-20T17:50:52.521Z,7.95
2023-03-20T17:53:25.185Z,7.92
2023-03-20T17:55:54.398Z,7.86
2023-03-20T17:58:24.532Z,7.82
2023-03-20T18:00:54.629Z,7.79
2023-03-20T18:03:23.373Z,7.74
2023-03-20T18:05:54.409Z,7.68
2023-03-20T18:08:23.530Z,7.62
2023-03-20T18:10:53.959Z,7.58
2023-03-20T18:13:23.556Z,7.56
2023-03-20T18:15:54.491Z,7.57
2023-03-20T18:18:24.063Z,7.55
2023-03-20T18:20:55.098Z,7.55
2023-03-20T18:23:23.520Z,7.54
2023-03-20T18:25:51.851Z,7.56
2023-03-20T18:28:23.215Z,7.55
2023-03-20T18:30:52.795Z,7.53
2023-03-20T18:33:25.366Z,7.53
2023-03-20T18:35:55.478Z,7.56
2023-03-20T18:38:25.759Z,7.57
2023-03-20T18:40:54.266Z,7.58
2023-03-20T18:43:22.307Z,7.60
2023-03-20T18:45:50.365Z,7.58
2023-03-20T18:48:18.941Z,7.61
2023-03-20T18:50:51.095Z,7.57
2023-03-20T18:53:21.366Z,7.57
2023-03-20T18:55:49.416Z,7.58
2023-03-20T18:58:22.597Z,7.57
2023-03-20T19:00:53.987Z,7.58
2023-03-20T19:03:24.712Z,7.62
2023-03-20T19:05:53.797Z,7.63
2023-03-20T19:08:23.950Z,7.62
2023-03-20T19:10:53.159Z,7.63
2023-03-20T19:13:23.140Z,7.63
2023-03-20T19:15:51.320Z,7.65
2023-03-20T19:18:21.854Z,7.62
2023-03-20T19:20:52.061Z,7.61
2023-03-20T19:23:21.642Z,7.61
2023-03-20T19:25:55.005Z,7.57
2023-03-20T19:28:37.785Z,7.58
2023-03-20T19:31:09.682Z,7.57
2023-03-20T19:33:39.021Z,7.62
2023-03-20T19:36:19.960Z,7.58
2023-03-20T19:38:48.033Z,7.59
2023-03-20T19:41:19.883Z,7.55
2023-03-20T19:43:52.819Z,7.54
2023-03-20T19:46:42.092Z,7.54
2023-03-20T19:49:19.670Z,7.55
2023-03-20T19:51:48.916Z,7.51
2023-03-20T19:54:17.210Z,7.51
2023-03-20T19:56:46.929Z,7.48
2023-03-20T19:59:16.881Z,7.45
2023-03-20T20:01:46.620Z,7.41
2023-03-20T20:04:15.452Z,7.40
2023-03-20T20:06:47.232Z,7.40
2023-03-20T20:09:16.615Z,7.37
2023-03-20T20:11:46.455Z,7.36
2023-03-20T20:14:15.460Z,7.35
2023-03-20T20:16:45.975Z,7.37
2023-03-20T20:19:14.628Z,7.33
2023-03-20T20:24:31.623Z,7.35
2023-03-20T20:27:16.309Z,7.37
2023-03-20T20:29:49.394Z,7.32
2023-03-20T20:32:18.189Z,7.34
2023-03-20T20:38:25.067Z,7.22
2023-03-20T20:40:28.398Z,7.21
2023-03-20T20:43:01.781Z,7.14
2023-03-20T20:45:32.114Z,7.10
2023-03-20T20:48:01.321Z,7.12
2023-03-20T20:50:31.752Z,7.20
2023-03-20T20:53:00.666Z,7.21
2023-03-20T20:55:28.771Z,7.27
2023-03-20T20:57:58.581Z,7.25
2023-03-20T21:00:45.308Z,7.29
2023-03-20T21:03:16.774Z,7.23
2023-03-20T21:05:44.770Z,7.20
2023-03-20T21:08:14.249Z,7.16
2023-03-20T21:10:42.967Z,7.08
2023-03-20T21:13:12.572Z,7.00
2023-03-20T21:15:41.286Z,6.95
2023-03-20T21:18:10.248Z,6.91
2023-03-20T21:20:38.760Z,6.87
2023-03-20T21:23:07.022Z,6.86
2023-03-20T21:25:40.570Z,6.90
2023-03-20T21:28:11.260Z,6.96
2023-03-20T21:30:54.618Z,6.90
2023-03-20T21:33:31.516Z,6.81
2023-03-20T21:36:00.715Z,6.86
2023-03-20T21:39:01.919Z,6.90
2023-03-20T21:41:18.940Z,6.90
2023-03-20T21:43:47.775Z,6.99
2023-03-20T22:01:14.495Z,6.94
2023-03-20T22:03:33.866Z,6.98
2023-03-20T22:07:05.930Z,6.95
2023-03-20T22:09:45.682Z,6.97
2023-03-20T22:12:30.257Z,7.04
2023-03-20T22:17:53.122Z,7.12
2023-03-20T22:21:06.300Z,7.10
2023-03-20T22:34:54.332Z,7.14
2023-03-20T22:43:17.358Z,7.15
2023-03-20T22:45:52.622Z,7.11
2023-03-20T22:48:28.129Z,7.10
2023-03-20T22:50:56.294Z,7.11
2023-03-20T22:53:25.886Z,7.16
2023-03-20T22:55:54.801Z,7.18
2023-03-20T22:58:23.676Z,7.18
2023-03-20T23:00:55.165Z,7.18
2023-03-20T23:03:42.493Z,7.20
2023-03-20T23:06:30.054Z,7.27
2023-03-20T23:09:05.702Z,7.27
2023-03-20T23:11:41.794Z,7.24
2023-03-20T23:14:20.449Z,7.35
2023-03-20T23:16:51.086Z,7.37
2023-03-20T23:19:20.020Z,7.36
2023-03-20T23:21:48.188Z,7.33
2023-03-20T23:24:18.006Z,7.32
2023-03-20T23:26:46.135Z,7.30
2023-03-20T23:29:14.599Z,7.28
2023-03-20T23:31:42.695Z,7.27
2023-03-20T23:34:10.876Z,7.23
2023-03-20T23:36:38.986Z,7.19
2023-03-20T23:39:08.803Z,7.18
2023-03-20T23:44:28.162Z,7.25
2023-03-20T23:46:56.234Z,7.25
2023-03-20T23:49:25.084Z,7.28
2023-03-20T23:51:53.456Z,7.34
2023-03-20T23:54:22.225Z,7.33
2023-03-20T23:56:51.844Z,7.30
2023-03-20T23:59:21.933Z,7.30
